createdAt,value
2018-11-22T10:19:12.912Z,965
2018-11-22T10:29:16.661Z,964.9
2018-11-22T10:55:28.838Z,964.5
2018-11-22T11:09:38.700Z,964.1
2018-11-22T11:20:16.662Z,964.1
2018-11-22T11:30:45.708Z,964.1
2018-11-22T11:40:49.423Z,964.2
2018-11-22T11:50:53.182Z,964.1
2018-11-22T12:00:56.873Z,964
2018-11-22T12:11:00.525Z,963.9
2018-11-22T12:21:04.980Z,963.9
2018-11-22T12:31:08.694Z,963.7
2018-11-22T12:41:13.823Z,963.8
2018-11-22T12:51:18.546Z,963.6
2018-11-22T13:01:22.192Z,963.7
2018-11-22T13:11:25.785Z,963.5
2018-11-22T13:21:29.655Z,963.4
2018-11-22T13:32:33.621Z,963.3
2018-11-22T13:55:50.778Z,963.1
2018-11-22T15:26:54.533Z,962.6
2018-11-22T16:06:22.235Z,962.6
2018-11-22T16:17:34.360Z,962.6
2018-11-22T16:17:59.126Z,962.6
2018-11-22T16:35:40.321Z,962.6
2018-11-22T16:51:10.607Z,962.8
2018-11-22T17:17:35.034Z,962.8
2018-11-22T17:27:38.644Z,963.1
2018-11-22T17:37:42.381Z,962.9
2018-11-22T17:47:45.992Z,963
2018-11-22T17:57:49.629Z,963.2
2018-11-22T18:07:53.217Z,963.2
2018-11-22T18:17:56.857Z,963.2
2018-11-22T18:28:00.429Z,963.3
2018-11-22T18:38:03.988Z,963.4
2018-11-22T18:48:07.618Z,963.4
2018-11-22T18:58:11.248Z,963.7
2018-11-22T19:08:15.869Z,963.6
2018-11-22T19:18:19.562Z,963.7
2018-11-22T19:28:23.148Z,964
2018-11-22T19:38:26.747Z,964
2018-11-22T19:48:30.450Z,964.2
2018-11-22T19:58:34.115Z,964.6
2018-11-22T20:08:37.778Z,964.8
2018-11-22T20:18:41.364Z,964.9
2018-11-22T20:28:44.965Z,965.1
2018-11-22T20:38:48.520Z,965.4
2018-11-22T20:48:52.113Z,965.4
2018-11-22T20:58:55.665Z,965.6
2018-11-22T21:09:00.242Z,965.6
2018-11-22T21:19:03.917Z,965.7
2018-11-22T21:29:07.582Z,965.8
2018-11-22T21:39:11.241Z,965.8
2018-11-22T21:49:14.857Z,966
2018-11-22T21:59:18.463Z,966
2018-11-22T22:09:22.057Z,966.2
2018-11-22T22:19:25.604Z,966.2
2018-11-22T22:29:29.165Z,966.5
2018-11-22T22:39:32.788Z,966.4
2018-11-22T22:49:36.583Z,966.4
2018-11-22T22:59:40.121Z,966.6
2018-11-22T23:09:43.789Z,966.7
2018-11-22T23:19:47.522Z,966.5
2018-11-22T23:29:51.187Z,966.6
2018-11-22T23:39:54.700Z,966.6
2018-11-22T23:49:58.288Z,966.6
